createdAt,value
2023-04-04T00:00:39.963Z,-1.00
2023-04-04T00:03:08.213Z,-1.10
2023-04-04T00:05:37.549Z,-1.10
2023-04-04T00:08:06.029Z,-1.10
2023-04-04T00:10:34.156Z,-1.10
2023-04-04T00:13:03.027Z,-1.20
2023-04-04T00:15:31.475Z,-1.20
2023-04-04T00:17:59.561Z,-1.20
2023-04-04T00:20:27.657Z,-1.20
2023-04-04T00:22:57.911Z,-1.20
2023-04-04T00:25:26.086Z,-1.30
2023-04-04T00:27:54.101Z,-1.30
2023-04-04T00:30:22.306Z,-1.20
2023-04-04T00:32:50.341Z,-1.30
2023-04-04T00:35:18.485Z,-1.30
2023-04-04T00:37:46.505Z,-1.30
2023-04-04T00:40:16.220Z,-1.30
2023-04-04T00:42:44.246Z,-1.40
2023-04-04T00:45:12.828Z,-1.40
2023-04-04T00:47:44.382Z,-1.40
2023-04-04T00:50:12.578Z,-1.50
2023-04-04T00:52:41.024Z,-1.50
2023-04-04T00:55:10.085Z,-1.50
2023-04-04T00:57:39.734Z,-1.50
2023-04-04T01:00:09.410Z,-1.50
2023-04-04T01:02:37.484Z,-1.50
2023-04-04T01:05:06.116Z,-1.30
2023-04-04T01:07:36.705Z,-1.60
2023-04-04T01:10:05.995Z,-1.60
2023-04-04T01:12:35.013Z,-1.60
2023-04-04T01:15:04.796Z,-1.60
2023-04-04T01:17:33.006Z,-1.60
2023-04-04T01:20:06.714Z,-1.60
2023-04-04T01:22:37.115Z,-1.60
2023-04-04T01:25:06.971Z,-1.70
2023-04-04T01:27:36.401Z,-1.70
2023-04-04T01:30:05.228Z,-1.70
2023-04-04T01:32:38.496Z,-1.70
2023-04-04T01:35:21.176Z,-1.70
2023-04-04T01:38:00.838Z,-1.70
2023-04-04T01:40:35.058Z,-1.70
2023-04-04T01:43:04.779Z,-1.60
2023-04-04T01:45:33.707Z,-1.80
2023-04-04T01:48:01.726Z,-1.80
2023-04-04T01:50:29.846Z,-1.80
2023-04-04T01:52:57.840Z,-1.70
2023-04-04T01:55:26.044Z,-1.80
2023-04-04T01:57:54.039Z,-1.80
2023-04-04T02:00:23.375Z,-1.80
2023-04-04T02:02:51.647Z,-1.80
2023-04-04T02:05:19.705Z,-1.90
2023-04-04T02:07:50.684Z,-1.90
2023-04-04T02:10:18.907Z,-1.90
2023-04-04T02:12:46.898Z,-1.90
2023-04-04T02:15:15.075Z,-1.90
2023-04-04T02:17:48.693Z,-1.90
2023-04-04T02:20:19.492Z,-1.90
2023-04-04T02:22:53.684Z,-1.90
2023-04-04T02:25:22.355Z,-1.90
2023-04-04T02:27:50.644Z,-1.90
2023-04-04T02:30:19.497Z,-1.90
2023-04-04T02:32:49.096Z,-2.00
2023-04-04T02:35:17.859Z,-2.00
2023-04-04T02:37:47.310Z,-2.00
2023-04-04T02:40:15.807Z,-2.00
2023-04-04T02:42:44.957Z,-2.00
2023-04-04T02:45:14.852Z,-2.00
2023-04-04T02:47:43.781Z,-2.00
2023-04-04T02:50:13.744Z,-2.00
2023-04-04T02:52:41.682Z,-2.00
2023-04-04T02:55:10.637Z,-2.00
2023-04-04T02:57:38.634Z,-2.00
2023-04-04T03:00:07.817Z,-2.00
2023-04-04T03:02:36.077Z,-2.00
2023-04-04T03:05:04.294Z,-2.00
2023-04-04T03:07:33.628Z,-1.90
2023-04-04T03:10:02.037Z,-1.90
2023-04-04T03:12:30.022Z,-1.90
2023-04-04T03:14:58.059Z,-1.90
2023-04-04T03:17:27.171Z,-2.00
2023-04-04T03:19:55.136Z,-1.90
2023-04-04T03:22:23.111Z,-2.00
2023-04-04T03:24:52.596Z,-2.00
2023-04-04T03:27:20.579Z,-2.00
2023-04-04T03:29:48.812Z,-2.00
2023-04-04T03:32:18.151Z,-2.00
2023-04-04T03:34:46.508Z,-2.00
2023-04-04T03:37:14.501Z,-2.00
2023-04-04T03:39:42.478Z,-2.00
2023-04-04T03:42:12.166Z,-2.00
2023-04-04T03:44:41.573Z,-2.00
2023-04-04T03:47:09.689Z,-2.00
2023-04-04T03:49:37.685Z,-2.00
2023-04-04T03:52:06.137Z,-2.00
2023-04-04T03:54:34.634Z,-2.00
2023-04-04T03:57:03.810Z,-2.00
2023-04-04T03:59:33.132Z,-2.00
2023-04-04T04:02:01.308Z,-2.00
2023-04-04T04:04:29.428Z,-1.90
2023-04-04T04:06:57.835Z,-1.90
2023-04-04T04:09:26.225Z,-2.00
2023-04-04T04:11:54.262Z,-2.00
2023-04-04T04:14:22.261Z,-2.00
2023-04-04T04:16:51.652Z,-2.10
2023-04-04T04:19:19.633Z,-2.10
2023-04-04T04:21:48.008Z,-2.10
2023-04-04T04:24:16.177Z,-2.10
2023-04-04T04:26:44.194Z,-2.10
2023-04-04T04:29:12.374Z,-2.10
2023-04-04T04:31:40.589Z,-2.10
2023-04-04T04:34:10.486Z,-2.10
2023-04-04T04:36:38.486Z,-2.10
2023-04-04T04:39:06.857Z,-2.10
2023-04-04T04:41:34.841Z,-2.10
2023-04-04T04:44:03.365Z,-2.00
2023-04-04T04:46:31.800Z,-2.10
2023-04-04T04:48:59.897Z,-2.10
2023-04-04T04:51:29.243Z,-2.10
2023-04-04T04:53:57.286Z,-2.10
2023-04-04T04:56:25.265Z,-2.10
2023-04-04T04:58:53.307Z,-2.00
2023-04-04T05:01:21.408Z,-2.00
2023-04-04T05:03:51.988Z,-2.00
2023-04-04T05:06:20.882Z,-2.00
2023-04-04T05:08:50.444Z,-2.00
2023-04-04T05:11:18.445Z,-2.10
2023-04-04T05:13:46.554Z,-2.10
2023-04-04T05:16:14.576Z,-2.10
2023-04-04T05:18:42.607Z,-2.10
2023-04-04T05:21:10.699Z,-2.10
2023-04-04T05:23:38.689Z,-2.10
2023-04-04T05:26:08.240Z,-2.00
2023-04-04T05:28:36.324Z,-2.10
2023-04-04T05:31:04.459Z,-2.10
2023-04-04T05:33:32.430Z,-2.00
2023-04-04T05:36:01.178Z,-1.70
2023-04-04T05:38:29.506Z,-1.90
2023-04-04T05:40:57.506Z,-2.00
2023-04-04T05:43:27.218Z,-1.90
2023-04-04T05:45:55.279Z,-1.80
2023-04-04T05:48:23.276Z,-1.80
2023-04-04T05:50:51.783Z,-1.70
2023-04-04T05:53:20.213Z,-1.70
2023-04-04T05:55:48.549Z,-1.60
2023-04-04T05:58:16.646Z,-1.60
2023-04-04T06:00:46.068Z,-1.50
2023-04-04T06:03:14.086Z,-1.40
2023-04-04T06:05:44.174Z,-1.40
2023-04-04T06:08:12.296Z,-1.30
2023-04-04T06:10:40.652Z,-1.20
2023-04-04T06:13:08.864Z,-1.10
2023-04-04T06:15:36.956Z,-1.00
2023-04-04T06:18:06.691Z,-0.90
2023-04-04T06:20:34.988Z,-0.80
2023-04-04T06:23:04.555Z,-0.70
2023-04-04T06:25:32.736Z,-0.60
2023-04-04T06:28:00.701Z,-0.50
2023-04-04T06:30:28.715Z,-0.30
2023-04-04T06:32:57.411Z,-0.20
2023-04-04T06:35:26.811Z,0.00
2023-04-04T06:37:56.737Z,0.20
2023-04-04T06:40:24.730Z,0.30
2023-04-04T06:42:55.173Z,0.40
2023-04-04T06:45:23.658Z,0.50
2023-04-04T06:47:53.554Z,0.60
2023-04-04T06:50:22.369Z,0.70
2023-04-04T06:52:52.752Z,0.80
2023-04-04T06:55:20.886Z,0.90
2023-04-04T06:57:48.851Z,1.00
2023-04-04T07:00:17.492Z,1.40
2023-04-04T07:02:46.100Z,1.30
2023-04-04T07:05:17.792Z,1.40
2023-04-04T07:07:46.409Z,1.60
2023-04-04T07:10:15.937Z,1.60
2023-04-04T07:12:43.938Z,1.70
2023-04-04T07:15:12.673Z,1.80
2023-04-04T07:17:41.295Z,2.00
2023-04-04T07:20:10.360Z,2.10
2023-04-04T07:22:39.461Z,2.30
2023-04-04T07:25:09.544Z,2.40
2023-04-04T07:27:40.186Z,2.60
2023-04-04T07:30:09.335Z,2.80
2023-04-04T07:32:38.258Z,2.90
2023-04-04T07:35:07.066Z,3.10
2023-04-04T07:37:38.015Z,3.30
2023-04-04T07:40:10.027Z,3.40
2023-04-04T07:42:44.955Z,3.50
2023-04-04T07:45:13.420Z,3.70
2023-04-04T07:47:44.783Z,4.00
2023-04-04T07:50:13.295Z,4.30
2023-04-04T07:52:41.552Z,4.50
2023-04-04T07:55:11.143Z,4.70
2023-04-04T07:57:40.831Z,5.00
2023-04-04T08:00:12.894Z,5.10
2023-04-04T08:02:41.112Z,5.40
2023-04-04T08:05:10.456Z,5.50
2023-04-04T08:07:38.533Z,5.80
2023-04-04T08:10:07.918Z,6.20
2023-04-04T08:12:36.044Z,7.00
2023-04-04T08:15:06.006Z,7.80
2023-04-04T08:17:34.288Z,9.00
2023-04-04T08:20:02.325Z,9.80
2023-04-04T08:22:30.345Z,10.90
2023-04-04T08:24:58.522Z,12.20
2023-04-04T08:27:26.481Z,13.30
2023-04-04T08:29:54.501Z,14.30
2023-04-04T08:32:23.874Z,14.70
2023-04-04T08:34:52.250Z,14.60
2023-04-04T08:37:20.387Z,14.50
2023-04-04T08:39:48.413Z,14.00
2023-04-04T08:42:20.695Z,14.50
2023-04-04T08:44:50.797Z,14.90
2023-04-04T08:47:19.746Z,14.80
2023-04-04T08:49:50.632Z,15.20
2023-04-04T08:52:21.669Z,14.90
2023-04-04T08:54:53.737Z,14.30
2023-04-04T08:57:22.257Z,14.10
2023-04-04T08:59:50.667Z,15.10
2023-04-04T09:02:25.452Z,15.60
2023-04-04T09:05:05.396Z,15.20
2023-04-04T09:07:37.321Z,14.90
2023-04-04T09:10:10.901Z,15.30
2023-04-04T09:12:41.041Z,16.00
2023-04-04T09:15:10.692Z,16.60
2023-04-04T09:17:38.694Z,16.50
2023-04-04T09:23:00.118Z,16.90
2023-04-04T09:25:28.345Z,18.50
2023-04-04T09:27:57.961Z,19.20
2023-04-04T09:30:26.148Z,18.40
2023-04-04T09:32:54.506Z,19.20
2023-04-04T09:35:22.495Z,19.70
2023-04-04T09:37:52.218Z,20.20
2023-04-04T09:40:23.960Z,19.00
2023-04-04T09:42:52.077Z,19.90
2023-04-04T09:45:31.542Z,21.50
2023-04-04T09:48:00.443Z,21.60
2023-04-04T09:50:30.415Z,22.30
2023-04-04T09:53:00.460Z,21.70
2023-04-04T09:55:37.659Z,19.90
2023-04-04T09:58:15.049Z,19.20
2023-04-04T10:00:48.298Z,18.40
2023-04-04T10:03:17.293Z,18.10
2023-04-04T10:05:46.868Z,18.20
2023-04-04T10:08:16.864Z,18.30
2023-04-04T10:10:59.116Z,19.00
2023-04-04T10:13:40.509Z,19.70
2023-04-04T10:16:08.670Z,21.10
2023-04-04T10:18:37.731Z,21.10
2023-04-04T10:23:42.442Z,21.10
2023-04-04T10:26:13.011Z,21.00
2023-04-04T10:28:42.189Z,20.40
2023-04-04T10:31:17.532Z,19.30
2023-04-04T10:33:51.570Z,19.00
2023-04-04T10:36:24.091Z,19.80
2023-04-04T10:39:02.146Z,19.80
2023-04-04T10:41:33.571Z,21.00
2023-04-04T10:44:09.734Z,22.20
2023-04-04T10:46:43.001Z,22.60
2023-04-04T10:49:11.875Z,22.80
2023-04-04T10:51:52.925Z,21.80
2023-04-04T10:54:24.333Z,20.30
2023-04-04T10:56:54.021Z,19.70
2023-04-04T10:59:22.440Z,18.80
2023-04-04T11:01:58.802Z,17.20
2023-04-04T11:04:38.023Z,16.50
2023-04-04T11:07:12.967Z,16.00
2023-04-04T11:09:57.256Z,16.40
2023-04-04T11:12:33.629Z,16.00
2023-04-04T11:15:10.825Z,15.60
2023-04-04T11:17:51.041Z,15.80
2023-04-04T11:20:22.438Z,15.30
2023-04-04T11:22:51.603Z,14.80
2023-04-04T11:25:34.857Z,14.60
2023-04-04T11:28:08.323Z,14.30
2023-04-04T11:30:44.637Z,14.60
2023-04-04T11:33:15.200Z,13.70
2023-04-04T11:35:50.997Z,12.70
2023-04-04T11:38:21.044Z,12.10
2023-04-04T11:40:56.245Z,11.90
2023-04-04T11:43:28.679Z,11.40
2023-04-04T11:46:08.814Z,11.20
2023-04-04T11:48:37.321Z,10.80
2023-04-04T11:51:05.965Z,10.80
2023-04-04T11:53:34.258Z,10.70
2023-04-04T11:56:02.462Z,10.60
2023-04-04T11:58:37.008Z,10.50
2023-04-04T12:01:06.460Z,10.80
2023-04-04T12:03:36.514Z,10.90
2023-04-04T12:06:04.971Z,11.00
2023-04-04T12:08:33.725Z,11.20
2023-04-04T12:11:06.546Z,11.00
2023-04-04T12:13:36.006Z,11.20
2023-04-04T12:16:04.530Z,11.30
2023-04-04T12:18:32.804Z,11.20
2023-04-04T12:21:01.596Z,11.40
2023-04-04T12:23:33.982Z,11.40
2023-04-04T12:26:04.055Z,11.30
2023-04-04T12:28:34.136Z,11.50
2023-04-04T12:31:05.763Z,11.40
2023-04-04T12:33:34.767Z,10.90
2023-04-04T12:36:04.485Z,11.10
2023-04-04T12:38:32.605Z,11.30
2023-04-04T12:41:01.122Z,11.40
2023-04-04T12:43:30.090Z,11.60
2023-04-04T12:45:59.439Z,11.80
2023-04-04T12:48:29.952Z,11.70
2023-04-04T12:50:59.294Z,11.90
2023-04-04T12:53:30.203Z,11.70
2023-04-04T12:56:02.410Z,11.50
2023-04-04T12:58:30.518Z,11.60
2023-04-04T13:01:02.027Z,11.70
2023-04-04T13:03:31.618Z,11.60
2023-04-04T13:06:00.580Z,11.70
2023-04-04T13:08:28.732Z,11.90
2023-04-04T13:11:02.368Z,12.20
2023-04-04T13:13:35.341Z,12.50
2023-04-04T13:16:04.457Z,12.90
2023-04-04T13:18:39.123Z,13.10
2023-04-04T13:21:08.533Z,13.00
2023-04-04T13:23:39.527Z,13.00
2023-04-04T13:26:09.245Z,13.00
2023-04-04T13:28:37.561Z,12.90
2023-04-04T13:31:06.923Z,12.90
2023-04-04T13:33:35.698Z,13.10
2023-04-04T13:36:05.822Z,12.80
2023-04-04T13:38:33.925Z,12.40
2023-04-04T13:41:02.235Z,12.00
2023-04-04T13:43:30.284Z,11.50
2023-04-04T13:45:58.412Z,11.60
2023-04-04T13:48:27.181Z,12.00
2023-04-04T13:50:55.709Z,11.90
2023-04-04T13:53:25.293Z,11.80
2023-04-04T13:58:24.326Z,11.80
2023-04-04T14:00:52.630Z,11.80
2023-04-04T14:03:20.975Z,12.00
2023-04-04T14:05:49.253Z,11.80
2023-04-04T14:08:17.559Z,12.00
2023-04-04T14:10:47.099Z,12.30
2023-04-04T14:13:15.156Z,12.80
2023-04-04T14:15:43.564Z,13.50
2023-04-04T14:18:12.230Z,14.10
2023-04-04T14:20:40.259Z,15.20
2023-04-04T14:23:09.488Z,16.40
2023-04-04T14:25:37.499Z,16.40
2023-04-04T14:28:07.756Z,17.50
2023-04-04T14:30:35.933Z,17.90
2023-04-04T14:33:04.020Z,18.20
2023-04-04T14:35:32.087Z,18.60
2023-04-04T14:38:00.106Z,18.20
2023-04-04T14:40:29.826Z,17.50
2023-04-04T14:42:57.804Z,17.20
2023-04-04T14:45:28.601Z,16.80
2023-04-04T14:47:56.681Z,16.00
2023-04-04T14:50:24.751Z,14.90
2023-04-04T14:52:53.036Z,14.80
2023-04-04T14:55:22.032Z,14.20
2023-04-04T14:58:01.948Z,13.70
2023-04-04T15:00:33.706Z,13.80
2023-04-04T15:03:02.094Z,13.50
2023-04-04T15:05:30.559Z,13.30
2023-04-04T15:07:58.554Z,13.40
2023-04-04T15:10:26.615Z,13.60
2023-04-04T15:12:55.287Z,13.50
2023-04-04T15:15:23.774Z,13.20
2023-04-04T15:17:53.482Z,13.00
2023-04-04T15:20:21.588Z,12.60
2023-04-04T15:22:49.597Z,13.10
2023-04-04T15:25:17.626Z,12.90
2023-04-04T15:27:45.878Z,12.70
2023-04-04T15:30:15.144Z,12.90
2023-04-04T15:32:43.227Z,12.70
2023-04-04T15:35:18.781Z,12.50
2023-04-04T15:37:46.859Z,12.40
2023-04-04T15:40:15.920Z,12.60
2023-04-04T15:42:44.481Z,12.00
2023-04-04T15:45:14.329Z,11.90
2023-04-04T15:47:43.006Z,12.20
2023-04-04T15:50:12.960Z,12.30
2023-04-04T15:52:41.821Z,12.10
2023-04-04T15:55:13.230Z,11.90
2023-04-04T15:57:44.433Z,12.10
2023-04-04T16:00:14.062Z,12.30
2023-04-04T16:05:14.720Z,11.90
2023-04-04T16:07:42.841Z,11.70
2023-04-04T16:10:11.825Z,11.50
2023-04-04T16:12:39.944Z,11.40
2023-04-04T16:15:09.593Z,11.30
2023-04-04T16:17:37.817Z,11.60
2023-04-04T16:20:07.387Z,11.60
2023-04-04T16:22:36.987Z,11.70
2023-04-04T16:25:05.449Z,11.80
2023-04-04T16:27:34.132Z,12.20
2023-04-04T16:30:02.498Z,11.80
2023-04-04T16:32:31.681Z,11.60
2023-04-04T16:34:59.976Z,11.40
2023-04-04T16:37:28.102Z,11.20
2023-04-04T16:40:00.249Z,11.20
2023-04-04T16:42:28.426Z,11.30
2023-04-04T16:44:56.547Z,11.10
2023-04-04T16:47:26.735Z,11.30
2023-04-04T16:49:56.224Z,11.30
2023-04-04T16:52:24.297Z,11.20
2023-04-04T16:54:52.420Z,10.80
2023-04-04T16:57:22.036Z,10.30
2023-04-04T16:59:50.339Z,10.10
2023-04-04T17:02:18.456Z,9.80
2023-04-04T17:04:46.635Z,9.50
2023-04-04T17:07:14.864Z,9.40
2023-04-04T17:09:43.079Z,9.40
2023-04-04T17:12:11.520Z,9.10
2023-04-04T17:14:41.034Z,8.90
2023-04-04T17:17:10.542Z,8.60
2023-04-04T17:19:38.958Z,8.40
2023-04-04T17:22:07.116Z,8.20
2023-04-04T17:24:35.210Z,8.10
2023-04-04T17:27:03.327Z,8.00
2023-04-04T17:29:31.489Z,8.00
2023-04-04T17:32:01.363Z,7.90
2023-04-04T17:34:29.580Z,7.70
2023-04-04T17:36:57.831Z,7.60
2023-04-04T17:39:26.187Z,7.40
2023-04-04T17:41:54.816Z,7.40
2023-04-04T17:44:23.039Z,7.20
2023-04-04T17:46:51.289Z,7.40
2023-04-04T17:49:20.920Z,7.00
2023-04-04T17:51:49.527Z,7.00
2023-04-04T17:54:17.677Z,6.90
2023-04-04T17:56:47.108Z,6.80
2023-04-04T17:59:16.616Z,6.70
2023-04-04T18:01:45.304Z,6.50
2023-04-04T18:04:13.747Z,6.50
2023-04-04T18:06:43.550Z,6.30
2023-04-04T18:09:11.777Z,6.30
2023-04-04T18:11:41.042Z,6.20
2023-04-04T18:14:09.483Z,6.10
2023-04-04T18:16:40.271Z,6.00
2023-04-04T18:19:08.723Z,5.90
2023-04-04T18:21:36.786Z,5.80
2023-04-04T18:24:08.033Z,5.70
2023-04-04T18:26:36.189Z,5.60
2023-04-04T18:29:04.467Z,5.50
2023-04-04T18:31:32.694Z,5.40
2023-04-04T18:34:00.971Z,5.30
2023-04-04T18:36:29.294Z,5.20
2023-04-04T18:38:57.612Z,5.10
2023-04-04T18:41:27.228Z,5.00
2023-04-04T18:43:55.395Z,5.00
2023-04-04T18:46:23.535Z,4.90
2023-04-04T18:48:51.764Z,4.80
2023-04-04T18:51:22.083Z,4.70
2023-04-04T18:53:51.584Z,4.60
2023-04-04T18:56:19.694Z,4.60
2023-04-04T18:58:49.575Z,4.50
2023-04-04T19:01:18.089Z,4.40
2023-04-04T19:03:48.129Z,4.30
2023-04-04T19:06:16.748Z,4.20
2023-04-04T19:08:45.395Z,4.20
2023-04-04T19:11:14.375Z,4.10
2023-04-04T19:13:42.462Z,4.00
2023-04-04T19:16:12.216Z,4.00
2023-04-04T19:18:40.462Z,3.90
2023-04-04T19:21:10.182Z,4.00
2023-04-04T19:23:39.526Z,3.80
2023-04-04T19:26:08.120Z,3.80
2023-04-04T19:28:36.323Z,3.70
2023-04-04T19:31:10.843Z,3.70
2023-04-04T19:33:40.677Z,3.70
2023-04-04T19:36:11.839Z,3.90
2023-04-04T19:38:42.530Z,3.70
2023-04-04T19:41:14.481Z,3.70
2023-04-04T19:43:45.031Z,3.70
2023-04-04T19:46:14.996Z,3.70
2023-04-04T19:48:48.877Z,3.70
2023-04-04T19:51:39.165Z,3.80
2023-04-04T19:54:09.155Z,3.80
2023-04-04T19:56:37.511Z,3.80
2023-04-04T19:59:10.505Z,3.80
2023-04-04T20:01:44.752Z,3.90
2023-04-04T20:04:20.017Z,3.90
2023-04-04T20:06:49.222Z,3.90
2023-04-04T20:09:34.571Z,3.90
2023-04-04T20:12:02.856Z,3.90
2023-04-04T20:14:31.026Z,3.90
2023-04-04T20:16:59.141Z,3.90
2023-04-04T20:19:29.677Z,3.70
2023-04-04T20:21:57.858Z,3.80
2023-04-04T20:24:26.206Z,3.80
2023-04-04T20:26:59.234Z,3.70
2023-04-04T20:29:29.021Z,3.70
2023-04-04T20:31:58.841Z,3.60
2023-04-04T20:34:42.886Z,3.60
2023-04-04T20:37:13.800Z,3.60
2023-04-04T20:39:49.845Z,3.60
2023-04-04T20:42:39.877Z,3.60
2023-04-04T20:45:29.561Z,3.80
2023-04-04T20:48:00.455Z,3.60
2023-04-04T20:50:46.372Z,3.60
2023-04-04T20:53:20.907Z,3.60
2023-04-04T20:55:50.548Z,3.60
2023-04-04T20:58:29.504Z,3.70
2023-04-04T21:00:59.143Z,3.70
2023-04-04T21:03:36.395Z,3.70
2023-04-04T21:06:13.071Z,3.80
2023-04-04T21:08:51.552Z,3.70
2023-04-04T21:11:28.999Z,4.00
2023-04-04T21:13:57.943Z,3.70
2023-04-04T21:16:27.768Z,3.70
2023-04-04T21:18:58.927Z,3.90
2023-04-04T21:21:28.844Z,3.70
2023-04-04T21:23:58.202Z,3.70
2023-04-04T21:26:32.036Z,3.60
2023-04-04T21:29:02.042Z,3.60
2023-04-04T21:31:36.258Z,3.60
2023-04-04T21:34:12.987Z,3.60
2023-04-04T21:36:43.300Z,3.60
2023-04-04T21:39:14.562Z,3.60
2023-04-04T21:41:44.680Z,3.50
2023-04-04T21:44:12.835Z,3.50
2023-04-04T21:46:42.382Z,3.50
2023-04-04T21:49:11.134Z,3.40
2023-04-04T21:51:39.576Z,3.40
2023-04-04T21:54:09.287Z,3.30
2023-04-04T21:56:38.391Z,3.30
2023-04-04T21:59:09.099Z,3.50
2023-04-04T22:01:37.601Z,3.20
2023-04-04T22:04:06.266Z,3.10
2023-04-04T22:06:34.704Z,3.10
2023-04-04T22:09:03.962Z,3.00
2023-04-04T22:11:34.712Z,3.00
2023-04-04T22:14:06.991Z,2.90
2023-04-04T22:16:39.005Z,2.80
2023-04-04T22:19:11.052Z,2.90
2023-04-04T22:21:47.824Z,2.60
2023-04-04T22:24:18.192Z,2.50
2023-04-04T22:26:50.438Z,2.30
2023-04-04T22:29:18.517Z,2.20
2023-04-04T22:31:46.598Z,2.10
2023-04-04T22:34:15.551Z,2.30
2023-04-04T22:36:43.922Z,2.00
2023-04-04T22:39:15.968Z,1.90
2023-04-04T22:41:44.455Z,1.80
2023-04-04T22:44:13.979Z,2.00
2023-04-04T22:46:41.996Z,1.60
2023-04-04T22:49:10.148Z,1.60
2023-04-04T22:51:44.080Z,1.50
2023-04-04T22:54:14.452Z,1.50
2023-04-04T22:56:42.901Z,1.40
2023-04-04T22:59:11.317Z,1.50
2023-04-04T23:01:41.077Z,1.30
2023-04-04T23:04:09.532Z,1.10
2023-04-04T23:06:38.418Z,1.20
2023-04-04T23:09:07.944Z,1.20
2023-04-04T23:11:36.705Z,1.10
2023-04-04T23:14:08.884Z,1.10
2023-04-04T23:16:37.544Z,1.00
2023-04-04T23:19:07.644Z,1.00
2023-04-04T23:21:36.676Z,0.90
2023-04-04T23:24:05.195Z,0.90
2023-04-04T23:26:33.514Z,1.00
2023-04-04T23:29:02.082Z,0.80
2023-04-04T23:31:30.705Z,0.80
2023-04-04T23:33:59.928Z,0.80
2023-04-04T23:36:29.441Z,0.80
2023-04-04T23:38:57.643Z,0.70
2023-04-04T23:41:26.322Z,0.70
2023-04-04T23:43:54.606Z,0.70
2023-04-04T23:46:23.901Z,0.60
2023-04-04T23:48:52.466Z,0.60
2023-04-04T23:51:21.327Z,0.60
2023-04-04T23:53:50.824Z,0.50
2023-04-04T23:56:19.044Z,0.50
2023-04-04T23:58:47.100Z,0.40
